sensor_id;sensor_type;location;lat;lon;timestamp;pressure;altitude;pressure_sealevel;temperature
62611;BMP280;48683;48.084;17.272;2023-07-31T00:01:45;100105.00;;;20.85
62611;BMP280;48683;48.084;17.272;2023-07-31T00:04:10;100109.91;;;20.72
62611;BMP280;48683;48.084;17.272;2023-07-31T00:06:35;100099.44;;;20.71
62611;BMP280;48683;48.084;17.272;2023-07-31T00:09:00;100110.06;;;20.69
62611;BMP280;48683;48.084;17.272;2023-07-31T00:11:25;100109.13;;;20.63
62611;BMP280;48683;48.084;17.272;2023-07-31T00:13:52;100114.13;;;20.64
62611;BMP280;48683;48.084;17.272;2023-07-31T00:16:17;100118.06;;;20.63
62611;BMP280;48683;48.084;17.272;2023-07-31T00:18:43;100118.22;;;20.60
62611;BMP280;48683;48.084;17.272;2023-07-31T00:21:08;100128.25;;;20.54
62611;BMP280;48683;48.084;17.272;2023-07-31T00:23:33;100127.78;;;20.46
62611;BMP280;48683;48.084;17.272;2023-07-31T00:25:58;100129.00;;;20.45
62611;BMP280;48683;48.084;17.272;2023-07-31T00:28:23;100127.00;;;20.36
62611;BMP280;48683;48.084;17.272;2023-07-31T00:30:48;100127.19;;;20.42
62611;BMP280;48683;48.084;17.272;2023-07-31T00:33:14;100125.66;;;20.41
62611;BMP280;48683;48.084;17.272;2023-07-31T00:35:39;100130.78;;;20.30
62611;BMP280;48683;48.084;17.272;2023-07-31T00:38:04;100137.28;;;20.32
62611;BMP280;48683;48.084;17.272;2023-07-31T00:40:33;100133.38;;;20.33
62611;BMP280;48683;48.084;17.272;2023-07-31T00:42:59;100130.91;;;20.26
62611;BMP280;48683;48.084;17.272;2023-07-31T00:45:24;100142.41;;;20.21
62611;BMP280;48683;48.084;17.272;2023-07-31T00:47:51;100147.84;;;20.12
62611;BMP280;48683;48.084;17.272;2023-07-31T00:50:17;100154.19;;;20.09
62611;BMP280;48683;48.084;17.272;2023-07-31T00:52:42;100157.97;;;20.12
62611;BMP280;48683;48.084;17.272;2023-07-31T00:55:07;100156.47;;;20.11
62611;BMP280;48683;48.084;17.272;2023-07-31T00:57:33;100159.63;;;20.09
62611;BMP280;48683;48.084;17.272;2023-07-31T00:59:59;100146.31;;;20.02
62611;BMP280;48683;48.084;17.272;2023-07-31T01:02:24;100160.84;;;19.99
62611;BMP280;48683;48.084;17.272;2023-07-31T01:04:50;100151.59;;;20.06
62611;BMP280;48683;48.084;17.272;2023-07-31T01:07:32;100159.75;;;19.97
62611;BMP280;48683;48.084;17.272;2023-07-31T01:10:02;100167.63;;;19.95
62611;BMP280;48683;48.084;17.272;2023-07-31T01:12:29;100166.88;;;19.94
62611;BMP280;48683;48.084;17.272;2023-07-31T01:17:24;100171.41;;;19.97
62611;BMP280;48683;48.084;17.272;2023-07-31T01:19:49;100173.94;;;19.82
62611;BMP280;48683;48.084;17.272;2023-07-31T01:27:14;100170.78;;;19.93
62611;BMP280;48683;48.084;17.272;2023-07-31T01:29:43;100173.69;;;19.99
62611;BMP280;48683;48.084;17.272;2023-07-31T01:32:10;100162.78;;;19.99
62611;BMP280;48683;48.084;17.272;2023-07-31T01:34:36;100165.41;;;20.11
62611;BMP280;48683;48.084;17.272;2023-07-31T01:37:02;100170.41;;;20.22
62611;BMP280;48683;48.084;17.272;2023-07-31T01:39:27;100174.50;;;20.17
62611;BMP280;48683;48.084;17.272;2023-07-31T01:41:53;100176.88;;;20.06
62611;BMP280;48683;48.084;17.272;2023-07-31T01:44:18;100169.53;;;19.85
62611;BMP280;48683;48.084;17.272;2023-07-31T01:46:43;100172.97;;;19.67
62611;BMP280;48683;48.084;17.272;2023-07-31T01:49:09;100166.72;;;19.58
62611;BMP280;48683;48.084;17.272;2023-07-31T01:51:34;100176.81;;;19.48
62611;BMP280;48683;48.084;17.272;2023-07-31T01:54:00;100177.06;;;19.41
62611;BMP280;48683;48.084;17.272;2023-07-31T01:56:25;100183.59;;;19.22
62611;BMP280;48683;48.084;17.272;2023-07-31T01:58:50;100172.50;;;19.16
62611;BMP280;48683;48.084;17.272;2023-07-31T02:01:16;100182.69;;;19.25
62611;BMP280;48683;48.084;17.272;2023-07-31T02:03:41;100190.22;;;19.21
62611;BMP280;48683;48.084;17.272;2023-07-31T02:06:07;100184.13;;;19.38
62611;BMP280;48683;48.084;17.272;2023-07-31T02:08:32;100191.84;;;19.40
62611;BMP280;48683;48.084;17.272;2023-07-31T02:10:57;100191.94;;;19.49
62611;BMP280;48683;48.084;17.272;2023-07-31T02:13:22;100194.53;;;19.53
62611;BMP280;48683;48.084;17.272;2023-07-31T02:15:48;100199.84;;;19.56
62611;BMP280;48683;48.084;17.272;2023-07-31T02:18:13;100186.38;;;19.53
62611;BMP280;48683;48.084;17.272;2023-07-31T02:20:38;100179.72;;;19.32
62611;BMP280;48683;48.084;17.272;2023-07-31T02:23:03;100184.78;;;19.42
62611;BMP280;48683;48.084;17.272;2023-07-31T02:25:28;100185.41;;;19.47
62611;BMP280;48683;48.084;17.272;2023-07-31T02:27:54;100182.63;;;19.37
62611;BMP280;48683;48.084;17.272;2023-07-31T02:30:19;100178.94;;;19.31
62611;BMP280;48683;48.084;17.272;2023-07-31T02:32:44;100179.91;;;19.37
62611;BMP280;48683;48.084;17.272;2023-07-31T02:35:09;100184.72;;;19.33
62611;BMP280;48683;48.084;17.272;2023-07-31T02:37:35;100186.41;;;19.40
62611;BMP280;48683;48.084;17.272;2023-07-31T02:40:00;100180.78;;;19.34
62611;BMP280;48683;48.084;17.272;2023-07-31T02:42:25;100183.59;;;19.43
62611;BMP280;48683;48.084;17.272;2023-07-31T02:44:50;100189.91;;;19.40
62611;BMP280;48683;48.084;17.272;2023-07-31T02:47:20;100190.03;;;19.37
62611;BMP280;48683;48.084;17.272;2023-07-31T02:49:45;100186.75;;;19.42
62611;BMP280;48683;48.084;17.272;2023-07-31T02:52:11;100197.63;;;19.42
62611;BMP280;48683;48.084;17.272;2023-07-31T02:54:36;100204.41;;;19.37
62611;BMP280;48683;48.084;17.272;2023-07-31T02:57:01;100201.47;;;19.32
62611;BMP280;48683;48.084;17.272;2023-07-31T02:59:27;100207.63;;;19.23
62611;BMP280;48683;48.084;17.272;2023-07-31T03:01:52;100194.56;;;19.18
62611;BMP280;48683;48.084;17.272;2023-07-31T03:04:18;100200.41;;;19.08
62611;BMP280;48683;48.084;17.272;2023-07-31T03:06:43;100200.34;;;18.99
62611;BMP280;48683;48.084;17.272;2023-07-31T03:09:08;100191.06;;;18.87
62611;BMP280;48683;48.084;17.272;2023-07-31T03:11:33;100190.75;;;18.72
62611;BMP280;48683;48.084;17.272;2023-07-31T03:13:59;100198.41;;;18.65
62611;BMP280;48683;48.084;17.272;2023-07-31T03:16:24;100205.25;;;18.69
62611;BMP280;48683;48.084;17.272;2023-07-31T03:18:49;100202.31;;;18.64
62611;BMP280;48683;48.084;17.272;2023-07-31T03:21:14;100217.00;;;18.66
62611;BMP280;48683;48.084;17.272;2023-07-31T03:23:39;100211.56;;;18.66
62611;BMP280;48683;48.084;17.272;2023-07-31T03:26:05;100215.47;;;18.65
62611;BMP280;48683;48.084;17.272;2023-07-31T03:28:31;100219.25;;;18.68
62611;BMP280;48683;48.084;17.272;2023-07-31T03:30:56;100222.56;;;18.63
62611;BMP280;48683;48.084;17.272;2023-07-31T03:33:22;100222.56;;;18.63
62611;BMP280;48683;48.084;17.272;2023-07-31T03:35:47;100228.06;;;18.72
62611;BMP280;48683;48.084;17.272;2023-07-31T03:38:12;100239.81;;;18.69
62611;BMP280;48683;48.084;17.272;2023-07-31T03:40:38;100235.13;;;18.82
62611;BMP280;48683;48.084;17.272;2023-07-31T03:43:03;100242.38;;;18.85
62611;BMP280;48683;48.084;17.272;2023-07-31T03:45:28;100238.72;;;18.79
62611;BMP280;48683;48.084;17.272;2023-07-31T03:47:53;100226.69;;;18.67
62611;BMP280;48683;48.084;17.272;2023-07-31T03:50:19;100224.09;;;18.51
62611;BMP280;48683;48.084;17.272;2023-07-31T03:52:45;100234.09;;;18.41
62611;BMP280;48683;48.084;17.272;2023-07-31T03:55:10;100226.94;;;18.35
62611;BMP280;48683;48.084;17.272;2023-07-31T03:57:35;100225.16;;;18.41
62611;BMP280;48683;48.084;17.272;2023-07-31T04:00:00;100221.06;;;18.36
62611;BMP280;48683;48.084;17.272;2023-07-31T04:02:25;100228.53;;;18.45
62611;BMP280;48683;48.084;17.272;2023-07-31T04:04:51;100240.72;;;18.53
62611;BMP280;48683;48.084;17.272;2023-07-31T04:07:16;100241.19;;;18.52
62611;BMP280;48683;48.084;17.272;2023-07-31T04:09:41;100241.78;;;18.68
62611;BMP280;48683;48.084;17.272;2023-07-31T04:12:06;100247.31;;;18.77
62611;BMP280;48683;48.084;17.272;2023-07-31T04:14:32;100244.81;;;18.70
62611;BMP280;48683;48.084;17.272;2023-07-31T04:16:57;100246.31;;;18.84
62611;BMP280;48683;48.084;17.272;2023-07-31T04:19:22;100254.13;;;18.94
62611;BMP280;48683;48.084;17.272;2023-07-31T04:21:47;100253.41;;;19.03
62611;BMP280;48683;48.084;17.272;2023-07-31T04:24:12;100248.09;;;19.00
62611;BMP280;48683;48.084;17.272;2023-07-31T04:26:37;100243.53;;;18.96
62611;BMP280;48683;48.084;17.272;2023-07-31T04:29:03;100245.50;;;18.96
62611;BMP280;48683;48.084;17.272;2023-07-31T04:31:28;100241.66;;;19.06
62611;BMP280;48683;48.084;17.272;2023-07-31T04:33:53;100242.22;;;19.01
62611;BMP280;48683;48.084;17.272;2023-07-31T04:36:18;100239.63;;;18.98
62611;BMP280;48683;48.084;17.272;2023-07-31T04:38:43;100244.19;;;19.01
62611;BMP280;48683;48.084;17.272;2023-07-31T04:41:09;100243.41;;;19.00
62611;BMP280;48683;48.084;17.272;2023-07-31T04:43:34;100244.31;;;18.97
62611;BMP280;48683;48.084;17.272;2023-07-31T04:45:59;100247.34;;;18.99
62611;BMP280;48683;48.084;17.272;2023-07-31T04:48:24;100243.75;;;19.02
62611;BMP280;48683;48.084;17.272;2023-07-31T04:50:49;100252.84;;;19.08
62611;BMP280;48683;48.084;17.272;2023-07-31T04:53:15;100250.34;;;19.14
62611;BMP280;48683;48.084;17.272;2023-07-31T04:55:40;100249.97;;;19.24
62611;BMP280;48683;48.084;17.272;2023-07-31T04:58:05;100251.34;;;19.29
62611;BMP280;48683;48.084;17.272;2023-07-31T05:00:30;100257.75;;;19.35
62611;BMP280;48683;48.084;17.272;2023-07-31T05:02:56;100256.19;;;19.47
62611;BMP280;48683;48.084;17.272;2023-07-31T05:05:21;100251.59;;;19.65
62611;BMP280;48683;48.084;17.272;2023-07-31T05:07:46;100243.63;;;19.71
62611;BMP280;48683;48.084;17.272;2023-07-31T05:10:11;100251.22;;;19.76
62611;BMP280;48683;48.084;17.272;2023-07-31T05:12:36;100235.66;;;19.76
62611;BMP280;48683;48.084;17.272;2023-07-31T05:15:02;100250.50;;;19.84
62611;BMP280;48683;48.084;17.272;2023-07-31T05:17:27;100243.56;;;19.92
62611;BMP280;48683;48.084;17.272;2023-07-31T05:19:52;100246.75;;;19.91
62611;BMP280;48683;48.084;17.272;2023-07-31T05:22:17;100252.28;;;20.09
62611;BMP280;48683;48.084;17.272;2023-07-31T05:24:43;100256.25;;;20.17
62611;BMP280;48683;48.084;17.272;2023-07-31T05:27:08;100264.41;;;20.17
62611;BMP280;48683;48.084;17.272;2023-07-31T05:29:34;100263.72;;;20.35
62611;BMP280;48683;48.084;17.272;2023-07-31T05:31:59;100269.25;;;20.53
62611;BMP280;48683;48.084;17.272;2023-07-31T05:34:25;100271.97;;;20.62
62611;BMP280;48683;48.084;17.272;2023-07-31T05:36:50;100261.06;;;20.62
62611;BMP280;48683;48.084;17.272;2023-07-31T05:39:15;100262.03;;;20.77
62611;BMP280;48683;48.084;17.272;2023-07-31T05:41:40;100267.16;;;20.94
62611;BMP280;48683;48.084;17.272;2023-07-31T05:44:05;100273.09;;;21.01
62611;BMP280;48683;48.084;17.272;2023-07-31T05:46:31;100265.66;;;21.11
62611;BMP280;48683;48.084;17.272;2023-07-31T05:48:56;100267.97;;;21.21
62611;BMP280;48683;48.084;17.272;2023-07-31T05:51:21;100266.88;;;21.37
62611;BMP280;48683;48.084;17.272;2023-07-31T05:53:46;100274.00;;;21.53
62611;BMP280;48683;48.084;17.272;2023-07-31T05:56:11;100266.72;;;21.50
62611;BMP280;48683;48.084;17.272;2023-07-31T05:58:37;100267.59;;;21.65
62611;BMP280;48683;48.084;17.272;2023-07-31T06:01:02;100256.63;;;21.83
62611;BMP280;48683;48.084;17.272;2023-07-31T06:03:27;100256.78;;;21.79
62611;BMP280;48683;48.084;17.272;2023-07-31T06:05:52;100254.78;;;21.89
62611;BMP280;48683;48.084;17.272;2023-07-31T06:08:18;100242.34;;;21.97
62611;BMP280;48683;48.084;17.272;2023-07-31T06:10:43;100249.81;;;22.20
62611;BMP280;48683;48.084;17.272;2023-07-31T06:13:08;100249.34;;;22.22
62611;BMP280;48683;48.084;17.272;2023-07-31T06:15:34;100245.28;;;22.41
62611;BMP280;48683;48.084;17.272;2023-07-31T06:17:59;100243.81;;;22.64
62611;BMP280;48683;48.084;17.272;2023-07-31T06:20:26;100246.31;;;22.77
62611;BMP280;48683;48.084;17.272;2023-07-31T06:22:52;100242.28;;;22.87
62611;BMP280;48683;48.084;17.272;2023-07-31T06:25:17;100235.09;;;22.75
62611;BMP280;48683;48.084;17.272;2023-07-31T06:27:42;100248.63;;;22.93
62611;BMP280;48683;48.084;17.272;2023-07-31T06:30:08;100241.75;;;22.97
62611;BMP280;48683;48.084;17.272;2023-07-31T06:32:33;100236.50;;;22.85
62611;BMP280;48683;48.084;17.272;2023-07-31T06:34:58;100232.22;;;23.07
62611;BMP280;48683;48.084;17.272;2023-07-31T06:37:23;100227.41;;;23.02
62611;BMP280;48683;48.084;17.272;2023-07-31T06:39:49;100227.03;;;23.09
62611;BMP280;48683;48.084;17.272;2023-07-31T06:42:14;100222.69;;;23.03
62611;BMP280;48683;48.084;17.272;2023-07-31T06:44:39;100214.00;;;23.19
62611;BMP280;48683;48.084;17.272;2023-07-31T06:47:04;100227.00;;;23.48
62611;BMP280;48683;48.084;17.272;2023-07-31T06:49:30;100218.66;;;23.28
62611;BMP280;48683;48.084;17.272;2023-07-31T06:51:55;100216.09;;;23.09
62611;BMP280;48683;48.084;17.272;2023-07-31T06:54:20;100224.25;;;23.33
62611;BMP280;48683;48.084;17.272;2023-07-31T06:56:45;100224.25;;;23.33
62611;BMP280;48683;48.084;17.272;2023-07-31T06:59:10;100235.25;;;23.24
62611;BMP280;48683;48.084;17.272;2023-07-31T07:01:36;100227.53;;;23.23
62611;BMP280;48683;48.084;17.272;2023-07-31T07:04:01;100227.53;;;23.23
62611;BMP280;48683;48.084;17.272;2023-07-31T07:06:26;100222.75;;;23.47
62611;BMP280;48683;48.084;17.272;2023-07-31T07:08:52;100221.25;;;23.46
62611;BMP280;48683;48.084;17.272;2023-07-31T07:11:17;100228.88;;;23.56
62611;BMP280;48683;48.084;17.272;2023-07-31T07:13:42;100228.59;;;23.54
62611;BMP280;48683;48.084;17.272;2023-07-31T07:16:07;100230.03;;;23.50
62611;BMP280;48683;48.084;17.272;2023-07-31T07:18:33;100220.47;;;23.60
62611;BMP280;48683;48.084;17.272;2023-07-31T07:20:58;100224.16;;;23.72
62611;BMP280;48683;48.084;17.272;2023-07-31T07:23:23;100212.72;;;23.73
62611;BMP280;48683;48.084;17.272;2023-07-31T07:25:48;100218.22;;;23.73
62611;BMP280;48683;48.084;17.272;2023-07-31T07:28:14;100209.78;;;23.62
62611;BMP280;48683;48.084;17.272;2023-07-31T07:30:39;100213.81;;;23.81
62611;BMP280;48683;48.084;17.272;2023-07-31T07:33:04;100205.81;;;23.63
62611;BMP280;48683;48.084;17.272;2023-07-31T07:35:30;100218.31;;;23.64
62611;BMP280;48683;48.084;17.272;2023-07-31T07:37:55;100215.78;;;23.46
62611;BMP280;48683;48.084;17.272;2023-07-31T07:40:20;100216.28;;;23.79
62611;BMP280;48683;48.084;17.272;2023-07-31T07:42:45;100212.75;;;23.93
62611;BMP280;48683;48.084;17.272;2023-07-31T07:45:11;100210.38;;;24.01
62611;BMP280;48683;48.084;17.272;2023-07-31T07:47:37;100215.88;;;24.16
62611;BMP280;48683;48.084;17.272;2023-07-31T07:50:02;100212.78;;;23.79
62611;BMP280;48683;48.084;17.272;2023-07-31T07:52:28;100211.53;;;23.94
62611;BMP280;48683;48.084;17.272;2023-07-31T07:54:53;100206.63;;;23.98
62611;BMP280;48683;48.084;17.272;2023-07-31T07:57:18;100206.06;;;23.94
62611;BMP280;48683;48.084;17.272;2023-07-31T07:59:43;100202.50;;;24.08
62611;BMP280;48683;48.084;17.272;2023-07-31T08:02:09;100203.81;;;24.28
62611;BMP280;48683;48.084;17.272;2023-07-31T08:04:34;100195.03;;;24.09
62611;BMP280;48683;48.084;17.272;2023-07-31T08:06:59;100201.06;;;24.48
62611;BMP280;48683;48.084;17.272;2023-07-31T08:09:24;100195.69;;;24.59
62611;BMP280;48683;48.084;17.272;2023-07-31T08:11:50;100190.09;;;24.28
62611;BMP280;48683;48.084;17.272;2023-07-31T08:14:15;100198.28;;;24.63
62611;BMP280;48683;48.084;17.272;2023-07-31T08:16:40;100192.16;;;24.53
62611;BMP280;48683;48.084;17.272;2023-07-31T08:19:05;100190.16;;;24.53
62611;BMP280;48683;48.084;17.272;2023-07-31T08:21:31;100192.97;;;24.59
62611;BMP280;48683;48.084;17.272;2023-07-31T08:23:56;100191.56;;;24.43
62611;BMP280;48683;48.084;17.272;2023-07-31T08:26:21;100190.72;;;24.37
62611;BMP280;48683;48.084;17.272;2023-07-31T08:28:47;100187.97;;;24.37
62611;BMP280;48683;48.084;17.272;2023-07-31T08:31:12;100196.81;;;24.27
62611;BMP280;48683;48.084;17.272;2023-07-31T08:33:37;100197.16;;;24.34
62611;BMP280;48683;48.084;17.272;2023-07-31T08:36:03;100196.00;;;24.61
62611;BMP280;48683;48.084;17.272;2023-07-31T08:38:28;100196.13;;;24.72
62611;BMP280;48683;48.084;17.272;2023-07-31T08:40:56;100202.72;;;25.06
62611;BMP280;48683;48.084;17.272;2023-07-31T08:43:21;100202.78;;;25.37
62611;BMP280;48683;48.084;17.272;2023-07-31T08:45:47;100192.22;;;25.30
62611;BMP280;48683;48.084;17.272;2023-07-31T08:48:15;100194.66;;;25.23
62611;BMP280;48683;48.084;17.272;2023-07-31T08:50:40;100185.84;;;25.13
62611;BMP280;48683;48.084;17.272;2023-07-31T08:53:05;100191.03;;;25.06
62611;BMP280;48683;48.084;17.272;2023-07-31T08:55:31;100183.41;;;24.95
62611;BMP280;48683;48.084;17.272;2023-07-31T08:57:57;100187.59;;;25.42
62611;BMP280;48683;48.084;17.272;2023-07-31T09:00:23;100183.25;;;25.04
62611;BMP280;48683;48.084;17.272;2023-07-31T09:05:15;100181.03;;;25.34
62611;BMP280;48683;48.084;17.272;2023-07-31T09:07:40;100185.66;;;25.48
62611;BMP280;48683;48.084;17.272;2023-07-31T09:10:11;100179.16;;;25.51
62611;BMP280;48683;48.084;17.272;2023-07-31T09:12:36;100180.56;;;25.67
62611;BMP280;48683;48.084;17.272;2023-07-31T09:15:02;100182.41;;;25.49
62611;BMP280;48683;48.084;17.272;2023-07-31T09:17:31;100174.78;;;25.59
62611;BMP280;48683;48.084;17.272;2023-07-31T09:19:56;100187.00;;;25.32
62611;BMP280;48683;48.084;17.272;2023-07-31T09:22:32;100184.31;;;25.38
62611;BMP280;48683;48.084;17.272;2023-07-31T09:25:04;100181.84;;;25.71
62611;BMP280;48683;48.084;17.272;2023-07-31T09:30:13;100167.38;;;25.76
62611;BMP280;48683;48.084;17.272;2023-07-31T09:32:38;100179.69;;;25.86
62611;BMP280;48683;48.084;17.272;2023-07-31T09:35:22;100190.34;;;25.73
62611;BMP280;48683;48.084;17.272;2023-07-31T09:37:51;100180.75;;;25.94
62611;BMP280;48683;48.084;17.272;2023-07-31T09:42:52;100164.91;;;26.26
62611;BMP280;48683;48.084;17.272;2023-07-31T09:45:17;100161.56;;;26.11
62611;BMP280;48683;48.084;17.272;2023-07-31T09:47:47;100169.59;;;26.15
62611;BMP280;48683;48.084;17.272;2023-07-31T09:50:13;100167.75;;;26.37
62611;BMP280;48683;48.084;17.272;2023-07-31T09:52:39;100160.22;;;26.32
62611;BMP280;48683;48.084;17.272;2023-07-31T09:55:04;100155.94;;;26.26
62611;BMP280;48683;48.084;17.272;2023-07-31T09:57:29;100148.75;;;26.51
62611;BMP280;48683;48.084;17.272;2023-07-31T09:59:55;100159.28;;;26.52
62611;BMP280;48683;48.084;17.272;2023-07-31T10:02:21;100159.75;;;26.45
62611;BMP280;48683;48.084;17.272;2023-07-31T10:04:47;100153.00;;;26.46
62611;BMP280;48683;48.084;17.272;2023-07-31T10:07:14;100153.03;;;26.52
62611;BMP280;48683;48.084;17.272;2023-07-31T10:09:41;100147.53;;;26.57
62611;BMP280;48683;48.084;17.272;2023-07-31T10:12:07;100140.03;;;26.63
62611;BMP280;48683;48.084;17.272;2023-07-31T10:14:34;100145.78;;;26.65
62611;BMP280;48683;48.084;17.272;2023-07-31T10:17:00;100144.00;;;26.46
62611;BMP280;48683;48.084;17.272;2023-07-31T10:19:26;100140.00;;;26.58
62611;BMP280;48683;48.084;17.272;2023-07-31T10:21:51;100139.53;;;26.59
62611;BMP280;48683;48.084;17.272;2023-07-31T10:24:17;100132.75;;;26.55
62611;BMP280;48683;48.084;17.272;2023-07-31T10:26:42;100127.75;;;26.48
62611;BMP280;48683;48.084;17.272;2023-07-31T10:29:10;100126.50;;;26.49
62611;BMP280;48683;48.084;17.272;2023-07-31T10:31:36;100127.97;;;26.44
62611;BMP280;48683;48.084;17.272;2023-07-31T10:34:01;100124.44;;;26.32
62611;BMP280;48683;48.084;17.272;2023-07-31T10:36:28;100122.44;;;26.33
62611;BMP280;48683;48.084;17.272;2023-07-31T10:38:54;100110.19;;;26.28
62611;BMP280;48683;48.084;17.272;2023-07-31T10:41:23;100113.44;;;26.32
62611;BMP280;48683;48.084;17.272;2023-07-31T10:43:54;100099.66;;;26.27
62611;BMP280;48683;48.084;17.272;2023-07-31T10:46:19;100112.97;;;26.51
62611;BMP280;48683;48.084;17.272;2023-07-31T10:48:44;100099.91;;;26.23
62611;BMP280;48683;48.084;17.272;2023-07-31T10:51:10;100104.47;;;26.37
62611;BMP280;48683;48.084;17.272;2023-07-31T10:53:37;100088.91;;;26.34
62611;BMP280;48683;48.084;17.272;2023-07-31T10:56:03;100091.94;;;26.42
62611;BMP280;48683;48.084;17.272;2023-07-31T10:58:29;100088.97;;;26.46
62611;BMP280;48683;48.084;17.272;2023-07-31T11:00:57;100082.72;;;26.62
62611;BMP280;48683;48.084;17.272;2023-07-31T11:03:25;100081.00;;;26.81
62611;BMP280;48683;48.084;17.272;2023-07-31T11:10:44;100071.53;;;27.04
62611;BMP280;48683;48.084;17.272;2023-07-31T11:13:10;100059.00;;;27.09
62611;BMP280;48683;48.084;17.272;2023-07-31T11:15:35;100056.75;;;26.85
62611;BMP280;48683;48.084;17.272;2023-07-31T11:18:01;100071.28;;;27.02
62611;BMP280;48683;48.084;17.272;2023-07-31T11:20:31;100064.75;;;27.38
62611;BMP280;48683;48.084;17.272;2023-07-31T11:22:58;100064.22;;;27.57
62611;BMP280;48683;48.084;17.272;2023-07-31T11:25:23;100048.69;;;27.37
62611;BMP280;48683;48.084;17.272;2023-07-31T11:27:48;100036.16;;;27.58
62611;BMP280;48683;48.084;17.272;2023-07-31T11:30:18;100033.41;;;27.58
62611;BMP280;48683;48.084;17.272;2023-07-31T11:32:43;100040.66;;;27.56
62611;BMP280;48683;48.084;17.272;2023-07-31T11:35:12;100036.56;;;27.84
62611;BMP280;48683;48.084;17.272;2023-07-31T11:37:40;100045.00;;;28.03
62611;BMP280;48683;48.084;17.272;2023-07-31T11:40:06;100037.53;;;27.87
62611;BMP280;48683;48.084;17.272;2023-07-31T11:42:32;100037.91;;;27.61
62611;BMP280;48683;48.084;17.272;2023-07-31T11:44:57;100041.19;;;27.49
62611;BMP280;48683;48.084;17.272;2023-07-31T11:47:22;100043.69;;;27.52
62611;BMP280;48683;48.084;17.272;2023-07-31T11:49:47;100035.44;;;27.47
62611;BMP280;48683;48.084;17.272;2023-07-31T11:52:14;100031.09;;;27.68
62611;BMP280;48683;48.084;17.272;2023-07-31T11:54:39;100033.31;;;27.80
62611;BMP280;48683;48.084;17.272;2023-07-31T11:57:05;100036.03;;;27.86
62611;BMP280;48683;48.084;17.272;2023-07-31T11:59:31;100031.91;;;28.15
62611;BMP280;48683;48.084;17.272;2023-07-31T12:01:56;100020.41;;;28.11
62611;BMP280;48683;48.084;17.272;2023-07-31T12:04:22;100021.47;;;27.91
62611;BMP280;48683;48.084;17.272;2023-07-31T12:06:48;100026.06;;;27.77
62611;BMP280;48683;48.084;17.272;2023-07-31T12:09:15;100016.97;;;27.94
62611;BMP280;48683;48.084;17.272;2023-07-31T12:11:44;100028.25;;;27.90
62611;BMP280;48683;48.084;17.272;2023-07-31T12:14:19;100025.75;;;27.92
62611;BMP280;48683;48.084;17.272;2023-07-31T12:16:44;100002.88;;;28.08
62611;BMP280;48683;48.084;17.272;2023-07-31T12:19:09;100011.03;;;28.25
62611;BMP280;48683;48.084;17.272;2023-07-31T12:21:35;100014.03;;;28.27
62611;BMP280;48683;48.084;17.272;2023-07-31T12:24:00;100001.56;;;28.56
62611;BMP280;48683;48.084;17.272;2023-07-31T12:26:25;99998.19;;;28.68
62611;BMP280;48683;48.084;17.272;2023-07-31T12:28:58;99990.31;;;28.02
62611;BMP280;48683;48.084;17.272;2023-07-31T12:31:23;99986.28;;;28.49
62611;BMP280;48683;48.084;17.272;2023-07-31T12:33:52;99980.38;;;28.34
62611;BMP280;48683;48.084;17.272;2023-07-31T12:36:20;99979.91;;;28.30
62611;BMP280;48683;48.084;17.272;2023-07-31T12:38:46;99980.47;;;28.23
62611;BMP280;48683;48.084;17.272;2023-07-31T12:41:11;99986.84;;;28.42
62611;BMP280;48683;48.084;17.272;2023-07-31T12:43:38;99992.34;;;28.77
62611;BMP280;48683;48.084;17.272;2023-07-31T12:46:04;99982.75;;;28.84
62611;BMP280;48683;48.084;17.272;2023-07-31T12:48:29;99974.88;;;28.64
62611;BMP280;48683;48.084;17.272;2023-07-31T12:50:54;99974.50;;;28.49
62611;BMP280;48683;48.084;17.272;2023-07-31T12:53:20;99969.91;;;28.57
62611;BMP280;48683;48.084;17.272;2023-07-31T12:55:45;99974.44;;;28.90
62611;BMP280;48683;48.084;17.272;2023-07-31T12:58:10;99974.53;;;29.03
62611;BMP280;48683;48.084;17.272;2023-07-31T13:00:35;99967.94;;;29.36
62611;BMP280;48683;48.084;17.272;2023-07-31T13:03:01;99960.56;;;29.62
62611;BMP280;48683;48.084;17.272;2023-07-31T13:05:26;99946.88;;;29.51
62611;BMP280;48683;48.084;17.272;2023-07-31T13:07:51;99951.41;;;29.30
62611;BMP280;48683;48.084;17.272;2023-07-31T13:10:17;99948.88;;;29.32
62611;BMP280;48683;48.084;17.272;2023-07-31T13:12:42;99944.09;;;29.33
62611;BMP280;48683;48.084;17.272;2023-07-31T13:15:07;99942.91;;;29.28
62611;BMP280;48683;48.084;17.272;2023-07-31T13:17:32;99938.22;;;29.17
62611;BMP280;48683;48.084;17.272;2023-07-31T13:19:58;99928.13;;;29.63
62611;BMP280;48683;48.084;17.272;2023-07-31T13:22:23;99927.81;;;29.85
62611;BMP280;48683;48.084;17.272;2023-07-31T13:24:49;99922.31;;;29.66
62611;BMP280;48683;48.084;17.272;2023-07-31T13:27:14;99925.75;;;29.54
62611;BMP280;48683;48.084;17.272;2023-07-31T13:29:43;99919.22;;;29.33
62611;BMP280;48683;48.084;17.272;2023-07-31T13:32:08;99918.78;;;29.47
62611;BMP280;48683;48.084;17.272;2023-07-31T13:34:34;99912.16;;;29.56
62611;BMP280;48683;48.084;17.272;2023-07-31T13:36:59;99897.56;;;29.37
62611;BMP280;48683;48.084;17.272;2023-07-31T13:39:24;99901.44;;;29.28
62611;BMP280;48683;48.084;17.272;2023-07-31T13:41:49;99910.56;;;29.42
62611;BMP280;48683;48.084;17.272;2023-07-31T13:44:14;99901.91;;;29.32
62611;BMP280;48683;48.084;17.272;2023-07-31T13:46:40;99894.50;;;29.59
62611;BMP280;48683;48.084;17.272;2023-07-31T13:49:05;99892.81;;;29.56
62611;BMP280;48683;48.084;17.272;2023-07-31T13:51:30;99888.47;;;29.60
62611;BMP280;48683;48.084;17.272;2023-07-31T13:53:55;99878.00;;;29.72
62611;BMP280;48683;48.084;17.272;2023-07-31T13:56:21;99889.50;;;29.76
62611;BMP280;48683;48.084;17.272;2023-07-31T13:58:46;99891.81;;;29.72